Bissau, Guinea-bissau
Current Conditions -  °F | °C
As of 7:00 PM on Tuesday 27 Jan 2015 (Local Time) from GGOV Reporting Station
Clear Clear  
Wind Chill: 88°   Ceiling: Unl
Heat Index: 88°   Visibility: 4mi
Dew Point: 46°   Wind: 5mph
Humidity: 24%   Direction: 350°N
Pressure: 29.83"   Gusts: NA
Location:  11.87°N, 15.6°W
Report Text: GGOV 271900Z 35004KT 6000 NSC 31/08 Q1010 NOSIG
Loading
Personal Weather Stations






























Interactive Weather Map New forecast layout! Learn more

10-Day Weather Forecast

Advertisements
Track Severe Weather on mobile